Time;durP1;ratioP1;P1;durP2;ratioP2;P2;SDS_P1;SDS_P2;PMS_P1;PMS_P2;Temp;Humidity;BMP_temperature;BMP_pressure;BME280_temperature;BME280_humidity;BME280_pressure;Samples;Min_cycle;Max_cycle;Signal;HPM_P1;HPM_P2
2021/03/04 00:00:18;;;;;;;24.33;11.47;;;;;;;4.32;71.40;99329.50;4979899;28;20435;-69
2021/03/04 00:02:44;;;;;;;44.50;17.83;;;;;;;4.28;70.45;99322.69;4978195;28;20031;-69
2021/03/04 00:05:11;;;;;;;21.07;10.67;;;;;;;4.33;70.56;99323.59;4979526;28;20026;-70
2021/03/04 00:07:39;;;;;;;27.80;12.50;;;;;;;4.29;70.49;99324.38;4979659;28;20019;-70
2021/03/04 00:10:10;;;;;;;22.57;10.43;;;;;;;4.32;70.68;99321.03;4978553;28;20262;-70
2021/03/04 00:12:36;;;;;;;25.80;11.07;;;;;;;4.22;70.04;99314.94;4978577;28;20089;-69
2021/03/04 00:15:03;;;;;;;25.80;11.90;;;;;;;4.22;70.07;99314.94;4978314;28;20406;-69
2021/03/04 00:17:29;;;;;;;21.00;10.00;;;;;;;4.14;70.13;99308.88;4979435;28;20296;-70
2021/03/04 00:19:54;;;;;;;22.03;10.80;;;;;;;4.19;70.15;99309.81;4977646;28;20038;-70
2021/03/04 00:22:19;;;;;;;23.47;11.00;;;;;;;4.18;69.86;99308.09;4979010;28;20064;-70
2021/03/04 00:24:45;;;;;;;16.53;8.87;;;;;;;4.23;69.61;99309.06;4978081;28;20023;-70
2021/03/04 00:27:11;;;;;;;21.27;10.00;;;;;;;4.25;69.78;99304.84;4979056;28;20047;-70
2021/03/04 00:29:37;;;;;;;18.40;8.73;;;;;;;4.28;68.61;99304.91;4975691;28;20054;-70
2021/03/04 00:32:02;;;;;;;19.77;8.97;;;;;;;4.32;68.39;99299.06;4977345;28;20234;-69
2021/03/04 00:34:28;;;;;;;20.30;9.83;;;;;;;4.26;68.50;99298.94;4979707;28;20038;-69
2021/03/04 00:36:53;;;;;;;21.83;10.37;;;;;;;4.22;68.99;99294.66;4977763;28;20041;-70
2021/03/04 00:39:20;;;;;;;20.67;9.60;;;;;;;4.23;69.13;99296.34;4979359;28;20037;-70
2021/03/04 00:41:45;;;;;;;20.10;9.87;;;;;;;4.13;69.44;99289.41;4978848;28;20030;-70
2021/03/04 00:44:10;;;;;;;27.57;11.47;;;;;;;4.11;69.60;99291.09;4976213;28;20316;-70
2021/03/04 00:46:36;;;;;;;21.00;10.63;;;;;;;4.17;69.10;99286.09;4979528;28;20459;-70
2021/03/04 00:49:02;;;;;;;23.33;11.43;;;;;;;4.27;68.87;99280.34;4977734;28;20043;-68
2021/03/04 00:51:28;;;;;;;21.37;9.80;;;;;;;4.21;69.00;99277.69;4978890;28;20250;-69
2021/03/04 00:53:54;;;;;;;23.90;10.83;;;;;;;4.22;69.12;99276.03;4978701;28;20368;-69
2021/03/04 00:56:20;;;;;;;22.30;9.73;;;;;;;4.19;68.80;99274.31;4979116;28;20037;-69
2021/03/04 00:58:45;;;;;;;27.27;11.13;;;;;;;4.13;69.13;99269.09;4978466;28;20356;-69
2021/03/04 01:01:11;;;;;;;21.43;10.10;;;;;;;4.05;69.11;99248.69;4978319;28;20026;-69
2021/03/04 01:03:36;;;;;;;24.30;10.77;;;;;;;4.18;69.14;99259.91;4978310;28;20113;-69
2021/03/04 01:06:02;;;;;;;22.40;9.53;;;;;;;4.15;68.89;99262.41;4978796;28;20026;-69
2021/03/04 01:08:28;;;;;;;18.23;8.77;;;;;;;4.09;68.87;99257.19;4978524;28;20026;-69
2021/03/04 01:10:53;;;;;;;20.17;8.07;;;;;;;4.00;69.00;99257.03;4977647;28;20292;-69
2021/03/04 01:13:19;;;;;;;23.17;9.73;;;;;;;3.94;69.79;99262.03;4979058;28;20045;-68
2021/03/04 01:15:45;;;;;;;24.47;10.50;;;;;;;3.81;70.02;99258.44;4978087;28;20026;-69
2021/03/04 01:18:10;;;;;;;22.03;9.00;;;;;;;3.76;70.70;99260.03;4977051;28;20023;-69
2021/03/04 01:20:36;;;;;;;20.57;9.90;;;;;;;3.67;70.68;99253.09;4977383;28;20054;-69
2021/03/04 01:23:02;;;;;;;16.87;8.83;;;;;;;3.67;70.67;99249.72;4977927;28;20034;-69
2021/03/04 01:25:27;;;;;;;17.53;9.60;;;;;;;3.64;70.10;99244.59;4977379;28;20031;-69
2021/03/04 01:27:53;;;;;;;25.73;10.10;;;;;;;3.66;69.78;99240.38;4977242;28;20110;-70
2021/03/04 01:30:28;;;;;;;21.30;10.53;;;;;;;3.74;69.80;99237.97;4977648;28;20026;-69
2021/03/04 01:32:54;;;;;;;22.98;9.27;;;;;;;3.65;69.26;99231.06;4976811;28;20412;-69
2021/03/04 01:35:19;;;;;;;20.63;9.13;;;;;;;3.68;68.98;99219.31;4977460;28;20169;-69
2021/03/04 01:37:45;;;;;;;19.90;9.23;;;;;;;3.82;68.75;99222.06;4977959;28;20031;-69
2021/03/04 01:40:13;;;;;;;21.83;8.87;;;;;;;3.99;67.77;99220.66;4979283;28;20049;-69
2021/03/04 01:42:39;;;;;;;19.97;7.93;;;;;;;4.04;66.29;99206.38;4979619;28;20031;-69
2021/03/04 01:45:05;;;;;;;19.00;8.37;;;;;;;4.17;65.95;99214.19;4981977;28;20378;-69
2021/03/04 01:47:31;;;;;;;17.13;8.57;;;;;;;4.16;66.17;99212.50;4981127;28;20495;-70
2021/03/04 01:49:57;;;;;;;19.83;8.60;;;;;;;4.22;65.70;99210.03;4981499;28;20042;-69
2021/03/04 01:52:23;;;;;;;20.80;8.37;;;;;;;4.24;65.50;99209.25;4979968;28;20027;-69
2021/03/04 01:54:49;;;;;;;18.33;7.47;;;;;;;4.24;65.47;99196.56;4977830;28;20054;-69
2021/03/04 01:57:17;;;;;;;17.50;8.30;;;;;;;4.23;65.74;99194.84;4978091;28;20058;-69
2021/03/04 01:59:42;;;;;;;13.33;7.30;;;;;;;4.18;65.23;99183.78;4979545;28;20046;-69
2021/03/04 02:02:08;;;;;;;14.73;7.30;;;;;;;4.19;65.64;99189.72;4978654;28;20058;-69
2021/03/04 02:04:34;;;;;;;20.93;10.03;;;;;;;4.11;65.33;99184.53;4977218;28;20023;-69
2021/03/04 02:07:25;;;;;;;17.00;7.03;;;;;;;4.09;65.95;99186.16;4978592;28;20364;-68
2021/03/04 02:10:00;;;;;;;18.97;7.83;;;;;;;4.12;65.80;99178.59;4934538;29;20048;-69
2021/03/04 02:12:54;;;;;;;15.00;7.90;;;;;;;4.18;65.25;99176.16;4918087;29;20052;-69
2021/03/04 02:15:28;;;;;;;22.43;9.00;;;;;;;4.17;65.33;99163.44;4932563;29;20050;-69
2021/03/04 02:17:54;;;;;;;14.30;6.87;;;;;;;4.13;65.78;99162.53;4931339;29;20037;-68
2021/03/04 02:20:31;;;;;;;20.60;8.30;;;;;;;4.13;65.82;99160.88;4933241;29;20044;-70
2021/03/04 02:23:35;;;;;;;12.60;6.00;;;;;;;4.23;65.26;99161.00;4932438;29;20032;-70
2021/03/04 02:26:25;;;;;;;17.10;7.10;;;;;;;4.27;65.01;99156.00;4929458;29;20526;-70
2021/03/04 02:28:54;;;;;;;13.60;6.50;;;;;;;4.24;64.80;99150.03;4936012;29;20031;-69
2021/03/04 02:31:21;;;;;;;16.43;7.23;;;;;;;4.23;64.53;99146.63;4921849;29;20035;-70
2021/03/04 02:33:48;;;;;;;15.20;7.43;;;;;;;4.23;64.82;99146.63;4930132;29;20389;-70
2021/03/04 02:36:15;;;;;;;17.27;6.90;;;;;;;4.28;64.14;99131.47;4930046;29;20031;-70
2021/03/04 02:38:41;;;;;;;15.03;5.90;;;;;;;4.37;63.44;99127.34;4931051;29;20107;-70
2021/03/04 02:41:06;;;;;;;17.13;7.13;;;;;;;4.58;62.55;99126.81;4930519;29;20035;-70
2021/03/04 02:43:33;;;;;;;16.80;6.93;;;;;;;4.65;62.32;99137.88;4932663;29;20106;-70
2021/03/04 02:46:01;;;;;;;15.47;6.90;;;;;;;4.70;61.74;99131.19;4939165;28;20035;-70
2021/03/04 02:48:28;;;;;;;14.40;6.70;;;;;;;4.78;61.17;99124.50;4978210;28;20062;-70
2021/03/04 02:50:55;;;;;;;18.00;6.33;;;;;;;4.96;60.24;99129.81;4977309;28;20097;-69
2021/03/04 02:53:22;;;;;;;14.33;6.27;;;;;;;5.01;59.69;99123.06;4977383;28;20068;-70
2021/03/04 02:55:49;;;;;;;13.93;7.07;;;;;;;4.93;59.99;99125.53;4978101;28;20026;-70
2021/03/04 02:58:15;;;;;;;15.07;6.60;;;;;;;4.94;59.91;99134.88;4976837;28;20058;-69
2021/03/04 03:00:42;;;;;;;13.63;5.13;;;;;;;4.97;59.57;99124.72;4977735;28;20085;-71
2021/03/04 03:03:11;;;;;;;14.60;7.10;;;;;;;5.06;58.94;99126.50;4978787;28;20126;-71
2021/03/04 03:05:39;;;;;;;10.17;5.67;;;;;;;5.09;58.61;99120.63;4979257;28;20041;-71
2021/03/04 03:08:06;;;;;;;10.73;5.30;;;;;;;5.01;59.12;99128.16;4979140;28;20027;-71
2021/03/04 03:10:33;;;;;;;12.40;6.03;;;;;;;5.00;58.85;99113.75;4981203;28;20026;-71
2021/03/04 03:13:00;;;;;;;14.13;5.30;;;;;;;5.06;58.51;99121.44;4982289;28;20019;-71
2021/03/04 03:15:27;;;;;;;11.77;5.27;;;;;;;5.15;58.12;99121.53;4982829;28;20023;-71
2021/03/04 03:17:53;;;;;;;18.60;7.43;;;;;;;5.19;57.93;99113.09;4981693;28;20093;-71
2021/03/04 03:20:21;;;;;;;16.50;5.90;;;;;;;5.25;57.78;99115.72;4980810;28;20328;-71
2021/03/04 03:22:48;;;;;;;9.07;4.60;;;;;;;5.30;57.52;99105.59;4982471;28;20030;-70
2021/03/04 03:25:15;;;;;;;16.80;5.73;;;;;;;5.37;57.06;99115.84;4982591;28;20077;-71
2021/03/04 03:27:42;;;;;;;11.87;5.60;;;;;;;5.45;56.29;99109.13;4980579;28;20035;-69
2021/03/04 03:30:10;;;;;;;15.60;6.27;;;;;;;5.58;55.65;99104.13;4979563;28;20041;-69
2021/03/04 03:32:38;;;;;;;13.33;5.93;;;;;;;5.63;55.24;99113.53;4981777;28;20058;-69
2021/03/04 03:35:05;;;;;;;10.80;5.37;;;;;;;5.73;54.68;99102.56;4981904;28;20113;-70
2021/03/04 03:37:31;;;;;;;10.80;4.97;;;;;;;5.72;54.54;99092.41;4980512;28;20312;-71
2021/03/04 03:39:57;;;;;;;12.90;5.60;;;;;;;5.74;54.69;99096.63;4980478;28;20113;-70
2021/03/04 03:42:23;;;;;;;13.37;6.83;;;;;;;5.74;54.75;99101.72;4981785;28;20719;-69
2021/03/04 03:44:50;;;;;;;11.60;5.03;;;;;;;5.78;55.31;99097.50;4983206;28;20388;-69
2021/03/04 03:47:16;;;;;;;12.93;6.13;;;;;;;5.68;55.29;99094.06;4980997;28;20047;-69
2021/03/04 03:49:43;;;;;;;10.80;5.37;;;;;;;5.62;55.55;99100.78;4981584;28;20044;-69
2021/03/04 03:52:09;;;;;;;11.73;5.33;;;;;;;5.44;56.57;99091.31;4981887;28;20027;-69
2021/03/04 03:54:36;;;;;;;17.00;6.87;;;;;;;5.35;56.96;99093.75;4980959;28;20031;-70
2021/03/04 03:57:03;;;;;;;15.13;5.93;;;;;;;5.39;56.69;99093.81;4980098;28;20031;-70
2021/03/04 03:59:31;;;;;;;13.63;6.00;;;;;;;5.41;56.57;99094.69;4980726;28;20050;-70
2021/03/04 04:01:57;;;;;;;11.03;4.70;;;;;;;5.33;56.84;99092.91;4981215;28;20312;-69
2021/03/04 04:04:23;;;;;;;14.03;6.57;;;;;;;5.29;56.98;99092.03;4980566;28;20027;-71
2021/03/04 04:06:50;;;;;;;15.10;6.23;;;;;;;5.35;56.57;99094.63;4980238;28;20376;-69
2021/03/04 04:09:15;;;;;;;11.27;5.23;;;;;;;5.31;56.67;99087.81;4978109;28;20372;-69
2021/03/04 04:11:41;;;;;;;15.50;5.80;;;;;;;5.20;57.44;99089.41;4981119;28;20042;-70
2021/03/04 04:14:06;;;;;;;15.63;6.20;;;;;;;5.10;58.07;99085.06;4980386;28;20027;-70
2021/03/04 04:16:34;;;;;;;15.27;5.03;;;;;;;5.06;58.22;99088.41;4979477;28;20595;-70
2021/03/04 04:18:59;;;;;;;14.70;5.20;;;;;;;4.86;58.69;99080.59;4979273;28;20037;-70
2021/03/04 04:21:25;;;;;;;11.43;4.97;;;;;;;4.84;59.01;99078.84;4979098;28;20303;-70
2021/03/04 04:23:51;;;;;;;12.57;5.00;;;;;;;4.75;59.48;99083.84;4979625;28;20030;-70
2021/03/04 04:26:18;;;;;;;14.57;6.47;;;;;;;4.66;60.03;99066.81;4978901;28;20045;-70
2021/03/04 04:28:44;;;;;;;9.77;5.20;;;;;;;4.56;60.29;99077.69;4979830;28;20022;-70
2021/03/04 04:31:11;;;;;;;12.17;5.43;;;;;;;4.41;60.84;99078.34;4980129;28;20093;-70
2021/03/04 04:33:36;;;;;;;9.00;4.87;;;;;;;4.37;61.02;99076.59;4978441;28;20041;-71
2021/03/04 04:36:02;;;;;;;14.60;7.00;;;;;;;4.40;61.03;99079.19;4978357;28;20030;-70
2021/03/04 04:38:27;;;;;;;12.00;5.40;;;;;;;4.27;61.50;99073.94;4979808;28;20325;-71
2021/03/04 04:40:53;;;;;;;9.60;4.70;;;;;;;4.28;61.32;99066.34;4980072;28;20027;-70
2021/03/04 04:43:19;;;;;;;15.97;6.30;;;;;;;4.19;61.62;99056.09;4978447;28;20066;-70
2021/03/04 04:45:44;;;;;;;16.33;5.83;;;;;;;4.22;61.51;99061.19;4978780;28;20352;-70
2021/03/04 04:48:10;;;;;;;15.27;5.63;;;;;;;4.21;61.36;99056.09;4979429;28;20061;-69
2021/03/04 04:50:35;;;;;;;14.43;5.20;;;;;;;4.29;61.44;99060.41;4979739;28;20030;-70
2021/03/04 04:53:01;;;;;;;13.10;6.27;;;;;;;4.34;60.48;99051.19;4978506;28;20034;-70
2021/03/04 04:55:26;;;;;;;15.30;5.33;;;;;;;4.32;60.24;99045.25;4978369;28;20026;-71
2021/03/04 04:57:52;;;;;;;14.60;6.13;;;;;;;4.26;60.57;99052.78;4979077;28;20042;-71
2021/03/04 05:00:18;;;;;;;26.73;10.00;;;;;;;4.22;60.51;99053.56;4979252;28;20074;-70
2021/03/04 05:02:43;;;;;;;13.40;5.33;;;;;;;4.12;61.72;99039.06;4978632;28;20030;-70
2021/03/04 05:05:09;;;;;;;15.80;6.70;;;;;;;4.14;61.44;99045.88;4978618;28;20390;-70
2021/03/04 05:07:35;;;;;;;14.47;5.10;;;;;;;4.12;61.49;99039.91;4979511;28;20019;-69
2021/03/04 05:10:03;;;;;;;11.93;5.70;;;;;;;4.09;61.28;99032.28;4979012;28;20062;-70
2021/03/04 05:12:28;;;;;;;12.57;5.70;;;;;;;4.13;61.18;99038.22;4977443;28;20026;-70
2021/03/04 05:14:54;;;;;;;15.20;6.63;;;;;;;4.16;61.21;99025.56;4977777;28;20034;-70
2021/03/04 05:17:20;;;;;;;13.33;4.97;;;;;;;4.16;61.26;99023.03;4979211;28;20030;-70
2021/03/04 05:19:45;;;;;;;12.80;4.70;;;;;;;4.12;60.92;99018.75;4978830;28;20027;-71
2021/03/04 05:22:10;;;;;;;16.20;7.10;;;;;;;4.08;61.46;99012.78;4978211;28;20292;-70
2021/03/04 05:24:36;;;;;;;9.40;4.77;;;;;;;4.07;61.88;99013.63;4979138;28;20026;-69
2021/03/04 05:27:02;;;;;;;11.10;5.47;;;;;;;4.02;61.90;99005.13;4979090;28;20039;-70
2021/03/04 05:29:27;;;;;;;11.53;5.60;;;;;;;3.98;62.01;99015.22;4978218;28;20035;-70
2021/03/04 05:31:53;;;;;;;18.23;7.83;;;;;;;3.97;62.44;99010.97;4978187;28;20053;-70
2021/03/04 05:34:18;;;;;;;18.83;6.47;;;;;;;3.98;62.70;99013.53;4978722;28;20038;-70
2021/03/04 05:36:43;;;;;;;12.50;6.60;;;;;;;3.95;62.95;99008.41;4979746;28;20022;-70
2021/03/04 05:39:09;;;;;;;11.37;5.80;;;;;;;3.95;63.21;99010.06;4978777;28;20035;-72
2021/03/04 05:41:34;;;;;;;12.40;7.23;;;;;;;3.94;63.50;99003.31;4978338;28;20093;-71
2021/03/04 05:44:00;;;;;;;12.47;7.00;;;;;;;4.05;63.01;99004.31;4978208;28;20030;-70
2021/03/04 05:46:26;;;;;;;13.87;6.90;;;;;;;4.08;63.06;98999.25;4978120;28;20031;-70
2021/03/04 05:48:52;;;;;;;19.37;8.97;;;;;;;4.09;62.98;99004.38;4978022;28;20074;-71
2021/03/04 05:51:32;;;;;;;37.53;16.50;;;;;;;4.21;63.14;99007.88;4976794;28;20030;-71
2021/03/04 05:53:58;;;;;;;22.33;9.97;;;;;;;4.17;62.73;99001.06;4978490;28;20062;-70
2021/03/04 05:56:25;;;;;;;24.17;10.47;;;;;;;4.14;63.02;98999.34;4978575;28;20037;-71
2021/03/04 05:58:51;;;;;;;23.33;7.33;;;;;;;4.20;62.28;99001.94;4977541;28;20133;-70
2021/03/04 06:01:18;;;;;;;11.40;5.53;;;;;;;4.25;62.54;98999.47;4978076;28;20034;-71
2021/03/04 06:03:44;;;;;;;8.73;5.07;;;;;;;4.27;62.24;99001.19;4979027;28;20055;-70
2021/03/04 06:06:11;;;;;;;9.97;5.60;;;;;;;4.23;62.02;98996.94;4978321;28;20045;-71
2021/03/04 06:08:37;;;;;;;13.13;6.40;;;;;;;4.30;61.67;99005.44;4978261;28;20023;-71
2021/03/04 06:11:03;;;;;;;15.73;5.93;;;;;;;4.32;61.54;99012.25;4977383;28;20030;-70
2021/03/04 06:13:30;;;;;;;10.53;5.80;;;;;;;4.33;61.92;99006.34;4978245;28;20081;-69
2021/03/04 06:15:56;;;;;;;17.37;6.90;;;;;;;4.35;61.97;99003.81;4978217;28;20026;-69
2021/03/04 06:18:22;;;;;;;10.37;4.73;;;;;;;4.40;61.80;99002.19;4977804;28;20031;-69
2021/03/04 06:20:47;;;;;;;12.83;6.00;;;;;;;4.40;61.54;99003.06;4975601;28;20031;-69
2021/03/04 06:23:13;;;;;;;19.97;8.57;;;;;;;4.45;61.06;99009.03;4976027;28;20035;-70
2021/03/04 06:25:39;;;;;;;9.70;4.27;;;;;;;4.49;61.42;99007.38;4976862;28;20034;-69
2021/03/04 06:28:08;;;;;;;9.57;5.17;;;;;;;4.54;61.21;99006.56;4978757;28;20019;-69
2021/03/04 06:30:39;;;;;;;7.60;4.03;;;;;;;4.59;61.34;99004.09;4977590;28;20030;-69
2021/03/04 06:33:07;;;;;;;11.67;4.83;;;;;;;4.63;60.73;99010.91;4975491;28;20037;-69
2021/03/04 06:35:42;;;;;;;13.97;5.30;;;;;;;4.68;60.37;99003.34;4976445;28;20110;-69
2021/03/04 06:38:22;;;;;;;12.97;5.47;;;;;;;4.80;59.86;99017.00;4976654;28;20274;-69
2021/03/04 06:40:50;;;;;;;16.00;6.47;;;;;;;4.92;59.05;99023.91;4975542;28;20074;-69
2021/03/04 06:43:28;;;;;;;21.47;8.70;;;;;;;5.02;58.73;99013.84;4975219;28;20253;-69
2021/03/04 06:46:04;;;;;;;14.77;6.30;;;;;;;5.21;58.00;99017.41;4979277;28;20066;-69
2021/03/04 06:48:30;;;;;;;12.30;6.03;;;;;;;5.21;57.42;99022.50;4980692;28;20110;-69
2021/03/04 06:51:04;;;;;;;12.40;6.70;;;;;;;5.32;58.13;99004.78;4980228;28;20110;-69
2021/03/04 06:53:31;;;;;;;12.17;5.67;;;;;;;5.44;57.36;99017.56;4980203;28;20618;-69
2021/03/04 06:56:04;;;;;;;17.77;6.37;;;;;;;5.65;56.72;99015.19;4980127;28;20455;-68
2021/03/04 06:58:40;;;;;;;9.13;5.13;;;;;;;5.72;56.26;99018.63;4981624;28;20035;-71
2021/03/04 07:01:09;;;;;;;11.10;5.23;;;;;;;5.85;56.18;99015.31;4981698;28;20035;-71
2021/03/04 07:03:36;;;;;;;13.57;5.97;;;;;;;5.97;55.78;99011.19;4976229;28;20034;-70
2021/03/04 07:06:03;;;;;;;22.47;7.90;;;;;;;6.09;56.00;99015.47;4975933;28;20077;-71
2021/03/04 07:08:33;;;;;;;17.47;6.53;;;;;;;6.13;55.81;99008.72;4978183;28;20045;-70
2021/03/04 07:11:02;;;;;;;18.90;9.83;;;;;;;6.16;55.79;99008.72;4979976;28;20053;-69
2021/03/04 07:13:30;;;;;;;18.40;8.27;;;;;;;6.17;55.15;99001.09;4979602;28;20027;-69
2021/03/04 07:15:56;;;;;;;16.37;6.03;;;;;;;6.28;55.35;99011.34;4978993;28;20039;-68
2021/03/04 07:18:23;;;;;;;15.63;6.17;;;;;;;6.42;55.17;99000.34;4981201;28;20376;-68
2021/03/04 07:20:50;;;;;;;16.23;6.57;;;;;;;6.52;55.08;99006.31;4979645;28;20023;-69
2021/03/04 07:23:15;;;;;;;13.20;4.80;;;;;;;6.49;54.98;98987.63;4980281;28;20058;-70
2021/03/04 07:25:41;;;;;;;11.67;5.10;;;;;;;6.58;55.01;99006.31;4980587;28;20109;-73
2021/03/04 07:28:07;;;;;;;13.90;4.57;;;;;;;6.72;53.25;99007.22;4977496;28;20029;-69
2021/03/04 07:30:33;;;;;;;11.33;5.73;;;;;;;6.86;53.64;99008.09;4980003;28;20276;-70
2021/03/04 07:32:58;;;;;;;10.23;4.30;;;;;;;7.00;53.37;99004.72;4979621;28;20033;-70
2021/03/04 07:35:24;;;;;;;14.80;5.53;;;;;;;7.01;53.71;98999.63;4979523;28;20428;-70
2021/03/04 07:37:50;;;;;;;14.80;6.47;;;;;;;7.17;52.99;99008.16;4979114;28;20029;-71
2021/03/04 07:40:15;;;;;;;13.30;5.53;;;;;;;7.20;52.06;99009.00;4980992;28;20041;-71
2021/03/04 07:42:41;;;;;;;9.50;4.63;;;;;;;7.27;52.24;98997.94;4979670;28;20257;-71
2021/03/04 07:45:13;;;;;;;22.43;7.83;;;;;;;7.56;51.83;98991.97;4979981;28;20376;-70
2021/03/04 07:47:39;;;;;;;12.63;5.53;;;;;;;7.62;51.23;98987.72;4977233;28;20050;-69
2021/03/04 07:50:25;;;;;;;13.93;6.57;;;;;;;7.78;51.01;98991.06;4978514;28;20412;-70
2021/03/04 07:53:00;;;;;;;;;;;;;;;7.95;51.21;98984.22;4976567;28;20051;-71
2021/03/04 07:55:38;;;;;;;13.00;5.20;;;;;;;8.05;51.29;98982.50;4979432;28;19914;-69
2021/03/04 07:58:13;;;;;;;14.77;4.53;;;;;;;8.17;49.98;98985.88;4977996;28;20284;-69
2021/03/04 08:00:39;;;;;;;9.05;4.30;;;;;;;8.14;49.73;98982.47;4979974;28;20033;-69
2021/03/04 08:03:04;;;;;;;12.50;4.97;;;;;;;8.27;48.92;98979.84;4977911;28;20126;-69
2021/03/04 08:05:36;;;;;;;7.47;4.00;;;;;;;8.53;48.48;98984.88;4981129;28;20047;-70
2021/03/04 08:08:10;;;;;;;15.23;5.67;;;;;;;8.70;48.19;98979.66;4976245;28;20037;-69
2021/03/04 08:10:54;;;;;;;9.27;4.40;;;;;;;8.76;50.63;98973.66;4978667;28;20146;-69
2021/03/04 08:13:36;;;;;;;16.63;6.93;;;;;;;8.81;50.00;98967.69;4976027;28;20033;-69
2021/03/04 08:16:11;;;;;;;18.30;7.57;;;;;;;8.96;49.10;98972.66;4976792;28;20035;-69
2021/03/04 08:18:36;;;;;;;6.55;3.95;;;;;;;9.08;49.24;98952.13;4975398;28;20077;-69
2021/03/04 08:21:06;;;;;;;21.87;7.63;;;;;;;9.32;47.78;98970.69;4975340;28;20308;-69
2021/03/04 08:23:31;;;;;;;22.83;8.03;;;;;;;9.48;47.45;98967.13;4975452;28;20031;-69
2021/03/04 08:25:59;;;;;;;22.23;7.57;;;;;;;9.72;47.45;98953.28;4979687;28;20528;-69
2021/03/04 08:28:27;;;;;;;35.17;13.03;;;;;;;9.89;46.25;98954.75;4977687;28;20102;-70
2021/03/04 08:30:53;;;;;;;22.43;8.70;;;;;;;10.08;46.56;98956.25;4978593;28;20030;-69
2021/03/04 08:33:18;;;;;;;19.30;9.03;;;;;;;10.34;46.15;98957.69;4983602;28;20312;-70
2021/03/04 08:35:46;;;;;;;19.50;7.67;;;;;;;10.42;46.11;98950.75;4973406;28;20030;-70
2021/03/04 08:38:14;;;;;;;25.27;10.47;;;;;;;10.60;46.50;98958.19;4978062;28;20035;-70
2021/03/04 08:40:39;;;;;;;21.43;10.30;;;;;;;10.69;46.51;98950.38;4975690;28;20130;-69
2021/03/04 08:43:12;;;;;;;17.87;8.87;;;;;;;10.94;46.08;98941.44;4979156;28;20324;-70
2021/03/04 08:45:38;;;;;;;10.23;6.30;;;;;;;11.30;45.66;98942.53;4979024;28;20282;-71
2021/03/04 08:48:06;;;;;;;18.50;8.07;;;;;;;11.40;45.10;98938.13;4978042;28;20050;-70
2021/03/04 08:50:52;;;;;;;15.32;7.45;;;;;;;11.82;44.92;98934.78;4975275;28;20031;-70
2021/03/04 08:53:24;;;;;;;15.45;7.97;;;;;;;12.08;43.85;98938.56;4979442;28;20077;-75
2021/03/04 08:56:10;;;;;;;15.77;7.97;;;;;;;12.36;43.16;98934.53;4978739;28;20038;-70
2021/03/04 08:58:42;;;;;;;16.33;6.88;;;;;;;12.40;42.52;98932.75;4977117;28;20085;-71
2021/03/04 09:01:08;;;;;;;11.18;6.35;;;;;;;12.24;42.46;98921.97;4977772;28;20031;-72
2021/03/04 09:03:36;;;;;;;16.80;7.28;;;;;;;12.55;41.32;98919.56;4978220;28;20038;-69
2021/03/04 09:06:04;;;;;;;21.60;18.13;;;;;;;12.38;41.59;98907.09;4977590;28;20026;-69
2021/03/04 09:08:38;;;;;;;43.60;40.38;;;;;;;12.62;39.95;98915.97;4977179;28;20027;-69
2021/03/04 09:11:09;;;;;;;12.25;8.10;;;;;;;12.86;40.61;98914.59;4979147;28;20114;-68
2021/03/04 09:13:36;;;;;;;16.42;14.15;;;;;;;13.01;39.06;98912.47;4975502;28;20031;-68
2021/03/04 09:16:06;;;;;;;30.85;28.40;;;;;;;13.23;38.85;98899.97;4977328;28;20036;-71
2021/03/04 09:18:41;;;;;;;38.40;36.33;;;;;;;13.44;38.71;98899.41;4977675;28;20045;-71
2021/03/04 09:21:12;;;;;;;20.23;18.38;;;;;;;13.62;38.42;98888.59;4978823;28;20109;-70
2021/03/04 09:23:38;;;;;;;13.98;10.68;;;;;;;13.80;38.56;98894.13;4977460;28;20397;-69
2021/03/04 09:26:03;;;;;;;14.80;10.23;;;;;;;13.97;37.43;98886.78;4977498;28;20055;-69
2021/03/04 09:28:30;;;;;;;17.92;16.50;;;;;;;14.05;37.38;98892.53;4978218;28;20042;-70
2021/03/04 09:30:56;;;;;;;20.58;19.15;;;;;;;14.04;37.32;98890.88;4977030;28;20548;-67
2021/03/04 09:33:24;;;;;;;19.48;17.90;;;;;;;14.22;36.47;98892.91;4981431;28;20031;-69
2021/03/04 09:35:52;;;;;;;67.90;64.18;;;;;;;14.30;36.24;98890.13;4977549;28;20260;-69
2021/03/04 09:38:18;;;;;;;129.50;123.50;;;;;;;14.38;36.07;98891.63;4977483;28;20027;-69
2021/03/04 09:40:43;;;;;;;112.53;107.43;;;;;;;14.35;35.35;98890.81;4978603;28;20027;-69
2021/03/04 09:43:25;;;;;;;127.75;121.35;;;;;;;14.38;34.50;98890.78;4976445;28;20058;-69
2021/03/04 09:45:51;;;;;;;85.47;80.80;;;;;;;14.15;34.75;98886.25;4974463;28;20034;-69
2021/03/04 09:48:40;;;;;;;103.05;98.22;;;;;;;14.19;34.82;98887.84;4976882;28;20043;-70
2021/03/04 09:51:07;;;;;;;152.98;145.57;;;;;;;14.37;34.04;98883.91;4977721;28;20033;-69
2021/03/04 09:54:02;;;;;;;219.45;206.93;;;;;;;14.56;34.71;98880.72;4974501;28;20062;-68
2021/03/04 09:56:28;;;;;;;108.57;103.43;;;;;;;14.67;34.44;98879.56;4966951;28;20042;-68
2021/03/04 09:58:53;;;;;;;328.00;311.30;;;;;;;14.46;34.79;98876.75;4977316;28;20054;-69
2021/03/04 10:01:32;;;;;;;61.00;57.30;;;;;;;14.64;34.94;98871.00;4976625;28;20031;-69
2021/03/04 10:04:03;;;;;;;22.73;14.10;;;;;;;14.58;34.30;98865.19;4976152;28;20243;-69
2021/03/04 10:06:32;;;;;;;15.80;9.10;;;;;;;14.73;35.09;98869.00;4977155;28;20058;-69
2021/03/04 10:08:58;;;;;;;13.98;7.35;;;;;;;14.20;33.87;98866.34;4991953;28;20026;-69
2021/03/04 10:11:25;;;;;;;15.25;7.80;;;;;;;14.10;34.49;98862.31;4976251;28;20113;-68
2021/03/04 10:13:51;;;;;;;20.67;7.40;;;;;;;14.15;34.35;98863.88;4974945;28;20416;-68
2021/03/04 10:16:17;;;;;;;15.40;8.80;;;;;;;14.22;34.59;98861.13;4977487;28;20031;-69
2021/03/04 10:18:47;;;;;;;14.20;7.05;;;;;;;14.32;34.79;98865.97;4979258;28;20054;-69
2021/03/04 10:21:14;;;;;;;11.18;6.15;;;;;;;14.19;34.80;98872.38;4985159;28;20093;-70
2021/03/04 10:23:40;;;;;;;13.52;6.70;;;;;;;14.10;34.22;98867.47;4987067;28;20446;-70
2021/03/04 10:26:06;;;;;;;13.35;7.57;;;;;;;13.91;34.05;98859.47;4987488;28;20022;-70
2021/03/04 10:28:31;;;;;;;18.58;7.90;;;;;;;13.93;34.57;98874.84;4985857;28;20015;-67
2021/03/04 10:30:57;;;;;;;11.13;5.95;;;;;;;13.94;33.84;98854.22;4990144;28;20027;-68
2021/03/04 10:33:22;;;;;;;15.90;7.72;;;;;;;14.15;33.33;98852.72;4991391;28;20364;-70
2021/03/04 10:35:48;;;;;;;16.27;7.72;;;;;;;14.13;33.64;98864.84;4987340;28;20029;-70
2021/03/04 10:38:13;;;;;;;13.15;6.75;;;;;;;14.27;33.47;98859.25;4986292;28;20026;-70
2021/03/04 10:40:39;;;;;;;16.85;7.30;;;;;;;14.31;33.26;98858.25;4986204;28;20119;-71
2021/03/04 10:43:05;;;;;;;24.08;8.63;;;;;;;14.44;33.47;98860.47;4985138;28;20026;-69
2021/03/04 10:45:30;;;;;;;19.45;9.23;;;;;;;14.48;32.91;98859.47;5000992;28;20430;-70
2021/03/04 10:47:56;;;;;;;17.35;8.00;;;;;;;14.57;33.09;98850.59;4982646;28;20047;-70
2021/03/04 10:50:23;;;;;;;23.55;8.70;;;;;;;14.57;34.01;98858.34;4982533;28;20372;-69
2021/03/04 10:52:49;;;;;;;15.77;7.13;;;;;;;14.45;34.49;98854.41;4981153;28;20078;-70
2021/03/04 10:55:16;;;;;;;20.75;10.23;;;;;;;14.19;34.64;98862.06;4974906;28;20019;-69
2021/03/04 10:57:42;;;;;;;30.25;11.35;;;;;;;14.30;34.90;98848.84;4981173;28;20280;-69
2021/03/04 11:00:12;;;;;;;16.90;7.97;;;;;;;14.38;35.10;98845.19;4981641;28;20030;-70
2021/03/04 11:02:38;;;;;;;20.67;8.63;;;;;;;14.56;35.73;98842.00;4981554;28;20034;-70
2021/03/04 11:05:06;;;;;;;23.15;9.25;;;;;;;14.45;34.72;98846.69;4978456;28;20035;-70
2021/03/04 11:07:31;;;;;;;18.85;8.40;;;;;;;14.38;34.63;98852.94;4981025;28;20039;-70
2021/03/04 11:09:57;;;;;;;15.90;8.18;;;;;;;14.43;34.72;98842.44;4981417;28;20295;-70
2021/03/04 11:12:22;;;;;;;23.15;10.93;;;;;;;14.24;35.51;98828.41;4979152;28;20257;-70
2021/03/04 11:14:48;;;;;;;23.73;11.65;;;;;;;14.39;35.76;98836.53;4980064;28;20368;-70
2021/03/04 11:17:14;;;;;;;15.85;8.27;;;;;;;14.15;35.17;98840.69;4980542;28;20041;-70
2021/03/04 11:19:40;;;;;;;22.05;8.32;;;;;;;14.30;36.69;98834.19;4980299;28;20076;-70
2021/03/04 11:22:06;;;;;;;20.20;8.43;;;;;;;14.45;36.44;98822.59;4976657;28;20153;-70
2021/03/04 11:24:35;;;;;;;34.50;12.40;;;;;;;14.68;36.82;98817.56;4976968;28;20030;-70
2021/03/04 11:27:00;;;;;;;23.77;7.55;;;;;;;14.39;37.66;98821.06;4976663;28;20031;-70
2021/03/04 11:29:27;;;;;;;23.48;8.23;;;;;;;14.53;38.25;98816.31;4977286;28;20347;-70
2021/03/04 11:31:52;;;;;;;22.33;8.20;;;;;;;14.67;38.32;98805.56;4980798;28;20383;-69